Time;durP1;ratioP1;P1;durP2;ratioP2;P2;SDS_P1;SDS_P2;PMS_P1;PMS_P2;Temp;Humidity;BMP_temperature;BMP_pressure;BME280_temperature;BME280_humidity;BME280_pressure;Samples;Min_cycle;Max_cycle;Signal;HPM_P1;HPM_P2
2021/08/23 00:00:13;;;;;;;5.03;3.20;;;16.20;99.20;;;;;;5023845;28;20064;-70
2021/08/23 00:02:39;;;;;;;6.50;3.47;;;16.20;99.30;;;;;;5029149;28;20659;-70
2021/08/23 00:05:05;;;;;;;5.82;4.47;;;16.10;99.50;;;;;;5027211;28;20034;-69
2021/08/23 00:07:31;;;;;;;5.47;3.45;;;16.20;99.30;;;;;;5027425;28;20041;-70
2021/08/23 00:09:57;;;;;;;8.15;4.05;;;16.20;99.30;;;;;;5028330;28;20052;-69
2021/08/23 00:12:24;;;;;;;5.68;3.85;;;16.10;99.50;;;;;;5028206;28;20029;-68
2021/08/23 00:14:51;;;;;;;8.35;4.40;;;16.10;99.50;;;;;;5029431;28;20076;-70
2021/08/23 00:17:17;;;;;;;5.18;4.03;;;16.10;99.60;;;;;;5011981;28;20816;-67
2021/08/23 00:19:42;;;;;;;7.00;3.90;;;16.10;99.60;;;;;;5014229;28;20495;-71
2021/08/23 00:22:29;;;;;;;5.75;4.05;;;16.10;99.60;;;;;;5013801;28;20030;-70
2021/08/23 00:24:54;;;;;;;7.70;4.30;;;16.10;99.70;;;;;;5030889;28;20017;-70
2021/08/23 00:27:20;;;;;;;6.07;4.07;;;16.00;99.90;;;;;;5029725;28;20034;-71
2021/08/23 00:29:46;;;;;;;9.23;4.07;;;16.00;99.80;;;;;;5030812;28;20025;-70
2021/08/23 00:32:13;;;;;;;6.50;4.22;;;16.00;99.80;;;;;;5016809;28;20033;-71
2021/08/23 00:34:38;;;;;;;9.30;4.80;;;16.00;99.90;;;;;;5029538;28;20083;-70
2021/08/23 00:37:05;;;;;;;6.53;4.45;;;16.00;99.90;;;;;;5031838;28;20025;-70
2021/08/23 00:39:31;;;;;;;6.78;4.43;;;16.00;99.90;;;;;;5029727;28;20520;-70
2021/08/23 00:41:58;;;;;;;7.00;4.72;;;16.00;99.90;;;;;;5030968;28;20033;-70
2021/08/23 00:44:24;;;;;;;7.55;4.63;;;16.00;99.90;;;;;;5013755;28;20180;-69
2021/08/23 00:46:49;;;;;;;6.22;4.15;;;16.00;99.90;;;;;;5013816;28;20092;-70
2021/08/23 00:49:15;;;;;;;5.63;4.32;;;16.00;99.90;;;;;;5028484;28;20022;-69
2021/08/23 00:51:41;;;;;;;8.75;5.00;;;16.00;99.90;;;;;;5011801;28;20022;-70
2021/08/23 00:54:06;;;;;;;8.88;4.70;;;16.00;99.90;;;;;;5031159;28;20041;-70
2021/08/23 00:56:32;;;;;;;7.72;4.38;;;16.10;99.90;;;;;;5032033;28;20036;-69
2021/08/23 00:58:58;;;;;;;6.72;4.13;;;16.10;99.90;;;;;;5030890;28;20049;-70
2021/08/23 01:01:40;;;;;;;7.45;4.18;;;16.10;99.90;;;;;;5031715;28;20042;-70
2021/08/23 01:04:15;;;;;;;8.85;3.97;;;16.10;99.90;;;;;;5030918;28;20508;-69
2021/08/23 01:06:43;;;;;;;8.90;4.00;;;16.10;99.90;;;;;;5029126;28;20487;-70
2021/08/23 01:09:12;;;;;;;6.45;3.88;;;16.10;99.90;;;;;;5028088;28;20462;-69
2021/08/23 01:11:45;;;;;;;11.18;4.03;;;16.10;99.90;;;;;;5030042;28;20084;-70
2021/08/23 01:14:11;;;;;;;5.57;3.95;;;16.00;99.90;;;;;;5029904;28;20052;-70
2021/08/23 01:16:37;;;;;;;7.57;3.70;;;16.00;99.90;;;;;;5029554;28;20025;-70
2021/08/23 01:19:04;;;;;;;7.57;3.72;;;16.00;99.90;;;;;;5029554;28;20037;-70
2021/08/23 01:21:31;;;;;;;5.47;3.50;;;16.00;99.90;;;;;;5028706;28;20044;-69
2021/08/23 01:24:00;;;;;;;6.78;3.58;;;15.90;99.90;;;;;;5029592;28;20068;-70
2021/08/23 01:26:34;;;;;;;7.43;4.22;;;15.90;99.90;;;;;;5012333;28;20031;-70
2021/08/23 01:29:06;;;;;;;6.03;3.47;;;15.80;99.90;;;;;;5030785;28;20017;-70
2021/08/23 01:31:42;;;;;;;6.90;3.50;;;15.80;99.90;;;;;;5011661;28;20037;-70
2021/08/23 01:34:09;;;;;;;6.60;3.53;;;15.80;99.90;;;;;;5028360;28;20037;-70
2021/08/23 01:36:36;;;;;;;5.78;3.40;;;15.80;99.90;;;;;;5013494;28;20559;-71
2021/08/23 01:39:02;;;;;;;6.22;3.45;;;15.80;99.90;;;;;;5031050;28;20060;-69
2021/08/23 01:41:28;;;;;;;7.15;3.35;;;15.80;99.90;;;;;;5028730;28;20021;-70
2021/08/23 01:43:54;;;;;;;7.38;3.20;;;15.80;99.90;;;;;;5028914;28;20029;-70
2021/08/23 01:46:19;;;;;;;7.53;4.05;;;15.70;99.90;;;;;;5030563;28;20029;-71
2021/08/23 01:48:46;;;;;;;9.23;3.13;;;15.70;99.90;;;;;;5028323;28;20405;-70
2021/08/23 01:51:12;;;;;;;8.65;3.70;;;15.80;99.90;;;;;;5026780;28;20049;-70
2021/08/23 01:53:38;;;;;;;6.10;3.13;;;15.70;99.90;;;;;;5030394;28;20076;-70
2021/08/23 01:56:04;;;;;;;6.95;3.65;;;15.70;99.90;;;;;;5020427;28;20478;-69
2021/08/23 01:58:30;;;;;;;6.75;3.28;;;15.70;99.90;;;;;;5027794;28;20037;-71
2021/08/23 02:00:55;;;;;;;7.38;3.03;;;15.70;99.90;;;;;;5030189;28;20040;-71
2021/08/23 02:03:21;;;;;;;8.18;2.50;;;15.70;99.90;;;;;;5028273;28;20041;-69
2021/08/23 02:05:47;;;;;;;4.97;2.75;;;15.70;99.90;;;;;;5029092;28;20032;-70
2021/08/23 02:08:13;;;;;;;4.03;2.70;;;15.60;99.90;;;;;;5029760;28;20030;-69
2021/08/23 02:10:39;;;;;;;4.72;2.80;;;15.60;99.90;;;;;;5028809;28;20388;-67
2021/08/23 02:13:04;;;;;;;5.63;2.67;;;15.60;99.90;;;;;;5028741;28;20491;-70
2021/08/23 02:15:30;;;;;;;6.00;2.50;;;15.50;99.90;;;;;;5028038;28;20036;-70
2021/08/23 02:17:56;;;;;;;4.93;2.88;;;15.50;99.90;;;;;;5027252;28;20483;-70
2021/08/23 02:20:22;;;;;;;5.85;2.50;;;15.50;99.90;;;;;;5027880;28;20087;-70
2021/08/23 02:22:48;;;;;;;5.22;2.22;;;15.50;99.90;;;;;;5031943;28;20025;-70
2021/08/23 02:25:20;;;;;;;4.88;2.30;;;15.50;99.90;;;;;;5026461;28;20391;-70
2021/08/23 02:27:46;;;;;;;6.47;2.10;;;15.50;99.90;;;;;;5029586;28;20418;-70
2021/08/23 02:30:12;;;;;;;9.00;2.80;;;15.50;99.90;;;;;;5028892;28;20038;-70
2021/08/23 02:32:38;;;;;;;4.97;2.05;;;15.40;99.90;;;;;;5028554;28;20057;-70
2021/08/23 02:35:04;;;;;;;6.38;2.20;;;15.40;99.90;;;;;;4993112;28;20110;-70
2021/08/23 02:37:30;;;;;;;4.18;2.13;;;15.40;99.90;;;;;;5028873;28;20037;-70
2021/08/23 02:39:55;;;;;;;4.55;2.00;;;15.40;99.90;;;;;;5030334;28;20038;-70
2021/08/23 02:42:21;;;;;;;4.03;1.85;;;15.40;99.90;;;;;;5028924;28;20391;-70
2021/08/23 02:44:46;;;;;;;3.85;1.83;;;15.40;99.90;;;;;;5029200;28;20025;-70
2021/08/23 02:47:12;;;;;;;5.68;1.98;;;15.40;99.90;;;;;;5027684;28;20057;-70
2021/08/23 02:49:38;;;;;;;4.97;2.10;;;15.40;99.90;;;;;;5028797;28;20091;-71
2021/08/23 02:52:04;;;;;;;4.85;2.20;;;15.40;99.90;;;;;;5028339;28;20025;-69
2021/08/23 02:54:29;;;;;;;2.80;1.88;;;15.30;99.90;;;;;;5012854;28;20087;-71
2021/08/23 02:56:55;;;;;;;4.55;2.65;;;15.30;99.90;;;;;;5031014;28;20100;-70
2021/08/23 02:59:21;;;;;;;4.40;2.05;;;15.30;99.90;;;;;;5027634;28;20684;-70
2021/08/23 03:01:46;;;;;;;5.18;2.10;;;15.20;99.90;;;;;;5026966;28;20081;-70
2021/08/23 03:04:12;;;;;;;6.78;2.10;;;15.20;99.90;;;;;;5029194;28;20021;-69
2021/08/23 03:06:38;;;;;;;4.25;2.03;;;15.20;99.90;;;;;;5025977;28;20087;-70
2021/08/23 03:09:04;;;;;;;3.55;1.92;;;15.20;99.90;;;;;;5028524;28;20087;-70
2021/08/23 03:11:30;;;;;;;5.75;2.13;;;15.20;99.90;;;;;;5028513;28;20033;-70
2021/08/23 03:13:56;;;;;;;4.88;2.30;;;15.20;99.90;;;;;;5027754;28;20029;-69
2021/08/23 03:16:22;;;;;;;4.40;1.98;;;15.20;99.90;;;;;;5029728;28;20083;-70
2021/08/23 03:18:48;;;;;;;4.72;1.92;;;15.10;99.90;;;;;;5026471;28;20034;-70
2021/08/23 03:21:14;;;;;;;4.38;1.80;;;15.10;99.90;;;;;;5028452;28;20057;-70
2021/08/23 03:23:40;;;;;;;4.35;1.90;;;15.10;99.90;;;;;;5025290;28;20034;-69
2021/08/23 03:26:06;;;;;;;6.05;2.05;;;15.10;99.90;;;;;;5028527;28;20025;-70
2021/08/23 03:28:33;;;;;;;5.43;2.10;;;15.10;99.90;;;;;;5027225;28;20022;-70
2021/08/23 03:30:59;;;;;;;4.43;2.30;;;15.00;99.90;;;;;;5027406;28;20026;-70
2021/08/23 03:33:25;;;;;;;4.78;2.20;;;15.00;99.90;;;;;;5011534;28;20120;-70
2021/08/23 03:35:51;;;;;;;3.55;1.95;;;15.00;99.90;;;;;;5009635;28;20513;-71
2021/08/23 03:38:16;;;;;;;5.22;1.88;;;14.90;99.90;;;;;;5028982;28;20037;-69
2021/08/23 03:40:42;;;;;;;3.67;1.75;;;15.00;99.90;;;;;;5027190;28;20041;-70
2021/08/23 03:43:08;;;;;;;6.30;1.90;;;14.90;99.90;;;;;;5009644;28;20510;-70
2021/08/23 03:45:34;;;;;;;5.53;2.47;;;14.90;99.90;;;;;;5024381;28;20026;-70
2021/08/23 03:47:59;;;;;;;6.10;1.95;;;14.90;99.90;;;;;;5028479;28;20028;-68
2021/08/23 03:50:25;;;;;;;4.18;1.95;;;14.80;99.90;;;;;;5030922;28;20033;-70
2021/08/23 03:52:51;;;;;;;4.65;1.90;;;14.80;99.90;;;;;;5033705;28;20026;-71
2021/08/23 03:55:16;;;;;;;2.47;1.70;;;14.80;99.90;;;;;;5030774;28;20044;-70
2021/08/23 03:57:42;;;;;;;4.93;1.95;;;14.80;99.90;;;;;;5032050;28;20033;-70
2021/08/23 04:00:09;;;;;;;5.47;2.38;;;14.80;99.90;;;;;;5031818;28;20033;-69
2021/08/23 04:02:36;;;;;;;5.38;2.17;;;14.80;99.90;;;;;;5033206;28;20036;-70
2021/08/23 04:05:01;;;;;;;5.22;2.55;;;14.80;99.90;;;;;;5031184;28;20048;-71
2021/08/23 04:07:27;;;;;;;3.50;1.92;;;14.80;99.90;;;;;;5030469;28;20491;-70
2021/08/23 04:09:53;;;;;;;6.10;2.30;;;14.80;99.90;;;;;;5031733;28;20040;-70
2021/08/23 04:12:18;;;;;;;5.78;2.50;;;14.70;99.90;;;;;;5029302;28;20222;-71
2021/08/23 04:14:44;;;;;;;3.95;2.55;;;14.70;99.90;;;;;;5030115;28;20029;-69
2021/08/23 04:17:10;;;;;;;5.05;2.55;;;14.70;99.90;;;;;;5030247;28;20086;-70
2021/08/23 04:19:35;;;;;;;7.30;2.97;;;14.70;99.90;;;;;;5031409;28;20061;-70
2021/08/23 04:22:01;;;;;;;5.40;3.00;;;14.70;99.90;;;;;;5012913;28;20021;-70
2021/08/23 04:24:27;;;;;;;6.18;3.15;;;14.70;99.90;;;;;;5027904;28;20025;-70
2021/08/23 04:26:53;;;;;;;5.18;3.00;;;14.60;99.90;;;;;;5013313;28;20033;-69
2021/08/23 04:29:19;;;;;;;9.45;3.45;;;14.60;99.90;;;;;;5027448;28;20030;-69
2021/08/23 04:31:45;;;;;;;7.18;3.50;;;14.60;99.90;;;;;;5029773;28;20564;-70
2021/08/23 04:34:11;;;;;;;6.97;3.55;;;14.60;99.90;;;;;;5032043;28;20056;-68
2021/08/23 04:36:37;;;;;;;7.40;3.45;;;14.60;99.90;;;;;;5012240;28;20503;-70
2021/08/23 04:39:04;;;;;;;8.20;3.33;;;14.60;99.90;;;;;;5027825;28;20028;-70
2021/08/23 04:41:38;;;;;;;7.22;3.42;;;14.60;99.90;;;;;;5013911;28;20479;-70
2021/08/23 04:44:05;;;;;;;8.27;4.15;;;14.60;99.90;;;;;;5028119;28;20069;-70
2021/08/23 04:46:31;;;;;;;7.45;4.10;;;14.60;99.90;;;;;;5027865;28;20109;-70
2021/08/23 04:48:57;;;;;;;8.45;4.63;;;14.60;99.90;;;;;;5029988;28;20108;-70
2021/08/23 04:51:22;;;;;;;7.00;4.25;;;14.50;99.90;;;;;;5026159;28;20135;-70
2021/08/23 04:53:49;;;;;;;9.48;4.55;;;14.60;99.90;;;;;;5031156;28;20060;-70
2021/08/23 04:56:16;;;;;;;10.88;4.32;;;14.60;99.90;;;;;;5030888;28;20029;-71
2021/08/23 04:58:42;;;;;;;7.53;4.13;;;14.60;99.90;;;;;;5028039;28;20584;-69
2021/08/23 05:01:08;;;;;;;5.68;3.72;;;14.60;99.90;;;;;;5008349;28;20037;-70
2021/08/23 05:03:34;;;;;;;9.43;4.90;;;14.60;99.90;;;;;;5027931;28;20025;-70
2021/08/23 05:06:00;;;;;;;8.20;4.50;;;14.60;99.90;;;;;;5029008;28;20026;-69
2021/08/23 05:08:25;;;;;;;10.45;5.22;;;14.60;99.90;;;;;;5011114;28;20494;-70
2021/08/23 05:10:51;;;;;;;8.05;4.70;;;14.60;99.90;;;;;;5030851;28;20483;-70
2021/08/23 05:13:17;;;;;;;5.85;3.92;;;14.60;99.90;;;;;;5031778;28;20075;-73
2021/08/23 05:15:43;;;;;;;7.20;4.25;;;14.60;99.90;;;;;;5029678;28;20025;-70
2021/08/23 05:18:09;;;;;;;10.57;4.78;;;14.60;99.90;;;;;;5030374;28;20030;-71
2021/08/23 05:20:35;;;;;;;7.65;3.72;;;14.70;99.90;;;;;;5031730;28;20175;-67
2021/08/23 05:23:00;;;;;;;8.35;4.30;;;14.70;99.90;;;;;;5030233;28;20523;-69
2021/08/23 05:25:26;;;;;;;8.80;4.35;;;14.70;99.90;;;;;;5030164;28;20025;-69
2021/08/23 05:27:52;;;;;;;7.93;4.60;;;14.70;99.90;;;;;;5011588;28;20499;-71
2021/08/23 05:30:18;;;;;;;9.15;4.45;;;14.70;99.90;;;;;;5030798;28;20514;-71
2021/08/23 05:32:43;;;;;;;10.52;4.45;;;14.70;99.90;;;;;;5010175;28;20048;-71
2021/08/23 05:35:10;;;;;;;7.57;4.10;;;14.80;99.90;;;;;;5027751;28;20073;-70
2021/08/23 05:37:36;;;;;;;9.10;4.03;;;14.80;99.90;;;;;;5026582;28;20056;-70
2021/08/23 05:40:02;;;;;;;8.65;4.63;;;14.80;99.90;;;;;;5025452;28;20107;-70
2021/08/23 05:42:28;;;;;;;6.50;3.53;;;14.80;99.90;;;;;;5029896;28;20055;-70
2021/08/23 05:44:54;;;;;;;9.05;4.80;;;14.80;99.90;;;;;;5031037;28;20503;-70
2021/08/23 05:47:21;;;;;;;9.05;3.97;;;14.90;99.90;;;;;;5028997;28;20033;-70
2021/08/23 05:49:47;;;;;;;10.30;4.22;;;14.90;99.90;;;;;;5030956;28;20045;-70
2021/08/23 05:52:13;;;;;;;8.93;4.10;;;14.90;99.90;;;;;;5030889;28;20033;-68
2021/08/23 05:54:40;;;;;;;7.50;4.22;;;14.90;99.90;;;;;;5028789;28;20033;-71
2021/08/23 05:57:06;;;;;;;10.57;4.70;;;15.00;99.90;;;;;;5030397;28;20427;-69
2021/08/23 05:59:32;;;;;;;6.93;3.50;;;15.00;99.90;;;;;;5026739;28;20022;-70
2021/08/23 06:01:58;;;;;;;6.28;3.85;;;15.10;99.90;;;;;;5025230;28;20076;-73
2021/08/23 06:04:24;;;;;;;8.18;3.13;;;15.10;99.90;;;;;;5030019;28;20025;-69
2021/08/23 06:06:50;;;;;;;4.20;3.13;;;15.20;99.90;;;;;;5029640;28;20435;-75
2021/08/23 06:09:17;;;;;;;6.07;2.75;;;15.20;99.90;;;;;;5032253;28;20033;-76
2021/08/23 06:11:43;;;;;;;6.85;3.03;;;15.20;99.90;;;;;;5033593;28;20025;-77
2021/08/23 06:14:09;;;;;;;11.75;3.95;;;15.20;99.90;;;;;;5032715;28;20037;-76
2021/08/23 06:16:34;;;;;;;5.45;2.95;;;15.30;99.90;;;;;;5014853;28;20107;-76
2021/08/23 06:19:00;;;;;;;5.88;2.90;;;15.40;99.90;;;;;;5014320;28;20034;-76
2021/08/23 06:21:26;;;;;;;6.45;3.03;;;15.40;99.90;;;;;;5031931;28;20030;-74
2021/08/23 06:23:52;;;;;;;4.57;2.70;;;15.40;99.90;;;;;;5015010;28;20096;-76
2021/08/23 06:26:18;;;;;;;5.65;2.85;;;15.50;99.90;;;;;;5032698;28;20025;-76
2021/08/23 06:28:44;;;;;;;6.50;2.85;;;15.50;99.90;;;;;;5014249;28;20045;-76
2021/08/23 06:31:10;;;;;;;4.25;2.22;;;15.60;99.90;;;;;;5032394;28;20057;-76
2021/08/23 06:33:36;;;;;;;4.75;2.25;;;15.60;99.90;;;;;;4997561;28;20033;-76
2021/08/23 06:36:02;;;;;;;6.88;2.50;;;15.60;99.90;;;;;;5031103;28;20029;-74
2021/08/23 06:38:28;;;;;;;8.55;2.72;;;15.60;99.90;;;;;;5013622;28;20040;-76
2021/08/23 06:40:54;;;;;;;6.55;2.60;;;15.70;99.90;;;;;;5010239;28;20323;-74
2021/08/23 06:43:19;;;;;;;9.15;2.42;;;15.80;99.90;;;;;;5032741;28;20045;-74
2021/08/23 06:45:45;;;;;;;5.45;2.17;;;15.80;99.90;;;;;;5027775;28;20048;-74
2021/08/23 06:48:11;;;;;;;6.80;2.97;;;15.80;99.90;;;;;;5029212;28;20022;-75
2021/08/23 06:50:37;;;;;;;8.40;2.58;;;15.90;99.90;;;;;;5012381;28;20029;-73
2021/08/23 06:53:03;;;;;;;3.08;2.00;;;15.90;99.90;;;;;;5031159;28;20040;-75
2021/08/23 06:55:30;;;;;;;9.52;2.70;;;16.00;99.90;;;;;;5012979;28;20029;-75
2021/08/23 06:57:55;;;;;;;10.00;2.65;;;16.00;99.90;;;;;;5023114;28;20470;-69
2021/08/23 07:00:21;;;;;;;8.95;2.40;;;16.10;99.90;;;;;;5027592;28;20116;-69
2021/08/23 07:02:47;;;;;;;7.43;2.58;;;16.10;99.90;;;;;;5026890;28;20083;-69
2021/08/23 07:05:13;;;;;;;5.30;2.13;;;16.20;99.80;;;;;;4993220;28;20040;-69
2021/08/23 07:07:39;;;;;;;4.25;2.17;;;16.20;99.70;;;;;;5021183;28;20080;-68
2021/08/23 07:10:06;;;;;;;8.65;2.40;;;16.20;99.70;;;;;;5025736;28;20410;-69
2021/08/23 07:12:31;;;;;;;5.20;2.70;;;16.30;99.70;;;;;;5027071;28;20038;-69
2021/08/23 07:14:57;;;;;;;5.25;2.08;;;16.40;99.40;;;;;;5026960;28;20029;-69
2021/08/23 07:17:23;;;;;;;6.75;2.35;;;16.40;99.40;;;;;;5008529;28;20388;-69
2021/08/23 07:19:48;;;;;;;4.32;2.33;;;16.50;99.30;;;;;;5025877;28;20422;-75
2021/08/23 07:22:19;;;;;;;6.22;2.45;;;16.50;99.20;;;;;;5006555;28;20029;-69
2021/08/23 07:24:46;;;;;;;3.95;1.98;;;16.50;99.20;;;;;;5027287;28;20021;-68
2021/08/23 07:27:13;;;;;;;4.72;2.03;;;16.60;99.20;;;;;;5010771;28;20053;-69
2021/08/23 07:29:40;;;;;;;5.15;2.03;;;16.60;99.10;;;;;;5026476;28;20554;-69
2021/08/23 07:32:06;;;;;;;5.90;1.90;;;16.70;98.90;;;;;;5027337;28;20029;-69
2021/08/23 07:34:31;;;;;;;5.65;1.48;;;16.70;98.80;;;;;;5029199;28;20028;-69
2021/08/23 07:36:57;;;;;;;6.53;2.13;;;16.80;98.80;;;;;;5010071;28;20033;-68
2021/08/23 07:39:23;;;;;;;7.57;1.88;;;16.90;98.80;;;;;;5027742;28;20029;-69
2021/08/23 07:41:50;;;;;;;5.28;2.00;;;16.90;98.70;;;;;;5026718;28;20033;-69
2021/08/23 07:44:15;;;;;;;6.28;1.95;;;16.90;98.60;;;;;;5026042;28;20057;-70
2021/08/23 07:46:41;;;;;;;4.32;1.67;;;16.90;98.50;;;;;;5010487;28;20056;-69
2021/08/23 07:49:07;;;;;;;6.60;1.90;;;17.00;98.50;;;;;;5027396;28;20037;-68
2021/08/23 07:51:34;;;;;;;4.85;1.75;;;17.00;98.50;;;;;;5026860;28;20662;-69
2021/08/23 07:53:59;;;;;;;3.72;1.77;;;17.00;98.20;;;;;;5026814;28;20104;-69
2021/08/23 07:56:26;;;;;;;5.00;1.83;;;17.10;98.10;;;;;;5008538;28;20120;-68
2021/08/23 07:58:51;;;;;;;4.40;1.63;;;17.20;98.00;;;;;;5027858;28;20026;-69
2021/08/23 08:01:17;;;;;;;4.05;1.60;;;17.20;97.80;;;;;;5027148;28;20041;-68
2021/08/23 08:03:43;;;;;;;4.07;1.70;;;17.30;97.80;;;;;;5027104;28;20025;-68
2021/08/23 08:06:09;;;;;;;3.67;1.40;;;17.40;97.50;;;;;;5026098;28;20029;-71
2021/08/23 08:08:35;;;;;;;5.97;1.80;;;17.40;97.00;;;;;;5024110;28;20045;-68
2021/08/23 08:11:01;;;;;;;3.42;1.45;;;17.50;97.00;;;;;;5025822;28;20034;-69
2021/08/23 08:13:27;;;;;;;3.03;1.67;;;17.60;96.20;;;;;;4993937;28;20025;-68
2021/08/23 08:15:52;;;;;;;3.58;1.33;;;17.60;96.30;;;;;;5028351;28;20104;-67
2021/08/23 08:18:18;;;;;;;3.97;1.42;;;17.70;96.20;;;;;;5028008;28;20044;-68
2021/08/23 08:20:44;;;;;;;4.03;1.88;;;17.70;96.30;;;;;;5026393;28;20427;-68
2021/08/23 08:23:10;;;;;;;2.58;1.02;;;17.70;95.20;;;;;;5028680;28;20037;-68
2021/08/23 08:25:36;;;;;;;2.58;1.30;;;17.70;95.10;;;;;;5009275;28;20036;-68
2021/08/23 08:28:02;;;;;;;2.78;1.20;;;17.70;95.10;;;;;;5029445;28;20388;-68
2021/08/23 08:30:28;;;;;;;2.88;1.30;;;17.80;94.60;;;;;;5027392;28;20033;-67
2021/08/23 08:32:54;;;;;;;2.42;1.42;;;17.80;94.20;;;;;;5029779;28;20380;-68
2021/08/23 08:35:19;;;;;;;4.90;1.20;;;17.80;94.00;;;;;;5028158;28;20030;-68
2021/08/23 08:37:45;;;;;;;3.38;1.52;;;17.80;93.10;;;;;;5012241;28;20140;-67
2021/08/23 08:40:11;;;;;;;2.15;1.20;;;17.90;93.10;;;;;;5031271;28;20380;-68
2021/08/23 08:42:39;;;;;;;6.20;1.73;;;17.80;93.20;;;;;;5032397;28;20029;-68
2021/08/23 08:45:05;;;;;;;2.67;1.42;;;17.90;93.20;;;;;;5038322;28;20466;-68
2021/08/23 08:47:33;;;;;;;1.65;1.10;;;18.00;93.20;;;;;;5031982;28;20041;-68
2021/08/23 08:50:00;;;;;;;3.75;1.23;;;18.00;92.80;;;;;;5031142;28;20701;-68
2021/08/23 08:52:26;;;;;;;3.67;1.30;;;18.00;91.70;;;;;;5031790;28;20479;-68
2021/08/23 08:54:52;;;;;;;4.80;1.25;;;18.10;91.60;;;;;;5013801;28;20033;-67
2021/08/23 08:57:18;;;;;;;2.70;1.23;;;18.20;91.90;;;;;;5030654;28;20037;-68
2021/08/23 08:59:44;;;;;;;2.10;0.98;;;18.30;91.90;;;;;;5031297;28;20083;-67
2021/08/23 09:02:10;;;;;;;2.65;1.42;;;18.30;91.40;;;;;;5030043;28;20451;-67
2021/08/23 09:04:38;;;;;;;2.35;1.15;;;18.40;91.30;;;;;;5032321;28;20041;-68
2021/08/23 09:07:06;;;;;;;3.00;1.08;;;18.50;90.80;;;;;;5029474;28;20690;-68
2021/08/23 09:09:33;;;;;;;3.90;1.55;;;18.40;90.30;;;;;;5031529;28;20036;-67
2021/08/23 09:12:02;;;;;;;4.43;1.35;;;18.50;90.20;;;;;;5012113;28;20442;-68
2021/08/23 09:14:28;;;;;;;3.03;1.50;;;18.50;90.60;;;;;;5031660;28;20036;-68
2021/08/23 09:17:02;;;;;;;3.50;1.33;;;18.50;90.10;;;;;;5031840;28;20037;-68
2021/08/23 09:19:28;;;;;;;3.80;1.40;;;18.50;88.80;;;;;;5031954;28;20044;-66
2021/08/23 09:22:00;;;;;;;3.38;1.30;;;18.50;88.90;;;;;;5013740;28;20037;-67
2021/08/23 09:24:29;;;;;;;3.50;1.40;;;18.60;88.50;;;;;;5013474;28;20025;-68
2021/08/23 09:27:07;;;;;;;2.22;1.30;;;18.60;88.50;;;;;;5031263;28;20029;-67
2021/08/23 09:29:49;;;;;;;3.88;1.23;;;18.70;88.60;;;;;;5027992;28;20033;-67
2021/08/23 09:32:19;;;;;;;3.80;1.40;;;18.70;86.90;;;;;;5030629;28;20419;-68
2021/08/23 09:34:46;;;;;;;2.37;1.10;;;18.70;84.60;;;;;;5032179;28;20026;-68
2021/08/23 09:37:23;;;;;;;3.85;1.70;;;18.70;85.30;;;;;;5013144;28;20692;-68
2021/08/23 09:39:49;;;;;;;4.45;1.63;;;18.80;84.10;;;;;;5029191;28;20430;-68
2021/08/23 09:42:20;;;;;;;3.90;1.60;;;18.80;84.50;;;;;;5030236;28;20026;-68
2021/08/23 09:44:46;;;;;;;3.13;1.60;;;18.80;84.00;;;;;;5029094;28;20030;-68
2021/08/23 09:47:12;;;;;;;3.17;1.75;;;18.90;85.10;;;;;;5029864;28;20552;-68
2021/08/23 09:49:40;;;;;;;3.45;1.60;;;19.00;84.90;;;;;;5030279;28;20024;-68
2021/08/23 09:52:08;;;;;;;4.43;1.88;;;19.10;84.30;;;;;;5012938;28;20039;-68
2021/08/23 09:54:34;;;;;;;5.95;2.17;;;19.20;84.70;;;;;;5031289;28;20036;-68
2021/08/23 09:57:00;;;;;;;4.97;2.15;;;19.30;83.80;;;;;;5029736;28;20061;-67
2021/08/23 09:59:31;;;;;;;2.78;1.50;;;19.40;83.60;;;;;;5031489;28;20040;-67
2021/08/23 10:02:00;;;;;;;2.70;1.48;;;19.40;82.30;;;;;;5028483;28;20374;-68
2021/08/23 10:04:28;;;;;;;3.25;1.50;;;19.40;83.40;;;;;;5030852;28;20092;-67
2021/08/23 10:06:54;;;;;;;3.35;1.40;;;19.50;83.90;;;;;;5035517;28;20029;-68
2021/08/23 10:09:27;;;;;;;2.97;1.77;;;19.60;83.50;;;;;;5031006;28;20045;-68
2021/08/23 10:11:58;;;;;;;2.50;1.45;;;19.60;82.60;;;;;;5027763;28;20034;-68
2021/08/23 10:14:24;;;;;;;3.03;1.25;;;19.80;83.00;;;;;;5030712;28;20029;-68
2021/08/23 10:16:50;;;;;;;2.63;1.30;;;19.90;83.10;;;;;;5030062;28;20129;-68
2021/08/23 10:19:16;;;;;;;3.17;1.50;;;19.90;80.40;;;;;;5027265;28;20033;-69
2021/08/23 10:21:44;;;;;;;4.30;1.88;;;19.90;80.30;;;;;;5028746;28;20037;-68
2021/08/23 10:24:15;;;;;;;3.30;1.48;;;19.90;81.80;;;;;;5027986;28;20080;-68
2021/08/23 10:26:46;;;;;;;2.92;1.60;;;19.90;82.10;;;;;;5035266;28;20032;-68
2021/08/23 10:29:14;;;;;;;3.15;1.52;;;20.00;82.20;;;;;;5029075;28;20041;-68
2021/08/23 10:31:42;;;;;;;2.35;1.23;;;20.00;80.70;;;;;;5029348;28;20041;-68
2021/08/23 10:34:16;;;;;;;4.07;1.80;;;20.10;79.70;;;;;;5011850;28;20068;-68
2021/08/23 10:36:44;;;;;;;3.33;1.50;;;20.10;78.90;;;;;;5028277;28;20029;-68
2021/08/23 10:39:16;;;;;;;3.15;1.83;;;20.20;76.90;;;;;;5011984;28;20041;-68
2021/08/23 10:41:42;;;;;;;2.70;1.45;;;20.20;77.20;;;;;;5028422;28;20033;-68
2021/08/23 10:44:08;;;;;;;4.65;1.40;;;20.20;76.50;;;;;;5010194;28;20464;-69
2021/08/23 10:46:36;;;;;;;2.38;1.10;;;20.20;77.20;;;;;;5027503;28;20029;-68
2021/08/23 10:49:16;;;;;;;3.83;2.22;;;20.30;77.20;;;;;;5026484;28;20049;-68
2021/08/23 10:51:44;;;;;;;2.15;1.30;;;20.40;77.20;;;;;;5028266;28;20033;-68
2021/08/23 10:54:25;;;;;;;3.58;1.33;;;20.70;78.20;;;;;;5026808;28;20037;-68
2021/08/23 10:57:12;;;;;;;3.40;1.15;;;20.90;77.40;;;;;;5028921;28;20037;-68
2021/08/23 10:59:44;;;;;;;4.53;1.55;;;21.00;74.10;;;;;;5035438;28;20387;-68
2021/08/23 11:02:13;;;;;;;2.80;1.20;;;20.90;73.50;;;;;;5010180;28;20030;-69
2021/08/23 11:04:56;;;;;;;2.83;1.10;;;20.90;72.90;;;;;;5030335;28;20064;-68
2021/08/23 11:07:27;;;;;;;3.40;1.30;;;21.00;73.60;;;;;;5010824;28;20128;-68
2021/08/23 11:10:09;;;;;;;3.72;1.13;;;21.00;74.40;;;;;;5029580;28;20080;-68
2021/08/23 11:12:47;;;;;;;2.63;1.30;;;21.20;76.30;;;;;;5028066;28;20025;-69
2021/08/23 11:15:26;;;;;;;3.70;1.38;;;21.60;78.80;;;;;;5029368;28;20025;-68
2021/08/23 11:17:59;;;;;;;3.25;1.45;;;22.00;72.60;;;;;;5027275;28;20160;-68
2021/08/23 11:20:27;;;;;;;2.65;1.00;;;22.20;70.70;;;;;;5027195;28;20033;-69
2021/08/23 11:22:55;;;;;;;2.30;1.20;;;22.60;68.90;;;;;;5028841;28;20018;-69
2021/08/23 11:25:44;;;;;;;3.65;1.20;;;22.90;68.70;;;;;;5029007;28;20075;-70
2021/08/23 11:28:14;;;;;;;2.95;1.10;;;22.90;68.20;;;;;;5016645;28;20060;-68
2021/08/23 11:30:42;;;;;;;3.72;1.52;;;23.50;69.80;;;;;;5027961;28;20034;-69
2021/08/23 11:33:10;;;;;;;2.85;1.10;;;25.60;60.40;;;;;;5029259;28;20442;-68
2021/08/23 11:35:37;;;;;;;1.88;1.10;;;27.70;55.90;;;;;;5026868;28;20030;-69
2021/08/23 11:38:06;;;;;;;2.28;1.33;;;28.80;47.90;;;;;;5027421;28;20021;-68
2021/08/23 11:40:34;;;;;;;3.27;2.07;;;29.40;49.30;;;;;;5028276;28;20029;-68
2021/08/23 11:43:02;;;;;;;1.55;1.15;;;30.90;44.50;;;;;;5029617;28;20095;-69
2021/08/23 11:45:31;;;;;;;2.83;1.70;;;31.70;41.10;;;;;;5028696;28;20029;-69
2021/08/23 11:47:57;;;;;;;1.88;1.13;;;32.10;39.00;;;;;;5029508;28;20033;-69
2021/08/23 11:50:23;;;;;;;10.52;2.75;;;31.50;39.70;;;;;;5027067;28;20029;-69
2021/08/23 11:52:50;;;;;;;3.53;1.58;;;30.20;40.30;;;;;;5029775;28;20033;-68
2021/08/23 11:55:30;;;;;;;5.85;1.17;;;28.60;41.30;;;;;;5025922;28;20045;-69
2021/08/23 11:58:02;;;;;;;2.17;1.17;;;28.20;43.30;;;;;;5028784;28;20095;-68
2021/08/23 12:00:29;;;;;;;2.17;1.27;;;27.70;44.10;;;;;;5027462;28;20226;-68
2021/08/23 12:03:03;;;;;;;2.45;1.10;;;27.90;46.60;;;;;;5029127;28;20033;-68
2021/08/23 12:05:36;;;;;;;3.17;1.33;;;28.60;43.00;;;;;;5027555;28;20403;-68
2021/08/23 12:08:03;;;;;;;2.08;0.98;;;29.30;42.30;;;;;;5008335;28;20104;-68
2021/08/23 12:10:29;;;;;;;2.55;1.25;;;29.80;40.40;;;;;;5030139;28;20029;-69
2021/08/23 12:13:11;;;;;;;1.67;1.10;;;29.50;40.20;;;;;;5031923;28;20022;-69
2021/08/23 12:15:51;;;;;;;2.83;0.82;;;29.20;42.20;;;;;;5026660;28;20064;-69
2021/08/23 12:18:17;;;;;;;1.88;1.05;;;29.00;44.40;;;;;;5030847;28;20614;-67
2021/08/23 12:20:43;;;;;;;2.55;1.00;;;28.60;43.60;;;;;;5031175;28;20045;-67
2021/08/23 12:23:09;;;;;;;1.88;0.75;;;27.90;44.20;;;;;;5030950;28;20029;-68
2021/08/23 12:25:35;;;;;;;1.70;1.08;;;27.00;45.20;;;;;;5029298;28;20475;-68
2021/08/23 12:28:00;;;;;;;1.27;0.93;;;26.50;46.50;;;;;;5030955;28;20032;-67
2021/08/23 12:30:26;;;;;;;2.05;1.10;;;26.30;46.90;;;;;;5031994;28;20045;-68
2021/08/23 12:32:52;;;;;;;1.48;1.00;;;26.50;46.70;;;;;;5032153;28;20037;-68
2021/08/23 12:35:33;;;;;;;2.03;1.20;;;26.90;47.00;;;;;;5031605;28;20128;-67
2021/08/23 12:37:59;;;;;;;2.05;0.88;;;27.30;44.40;;;;;;5031548;28;20033;-68
2021/08/23 12:40:25;;;;;;;3.08;1.30;;;28.00;42.60;;;;;;5031714;28;20494;-67
2021/08/23 12:42:56;;;;;;;1.42;1.13;;;28.40;43.50;;;;;;5032741;28;20057;-68
2021/08/23 12:45:22;;;;;;;1.20;1.00;;;29.10;43.30;;;;;;5029768;28;20029;-68